sensor_id;sensor_type;location;lat;lon;timestamp;P1;durP1;ratioP1;P2;durP2;ratioP2
15573;SDS011;7888;46.748;8.102;2023-04-06T00:01:56;3.27;;;2.80;;
15573;SDS011;7888;46.748;8.102;2023-04-06T00:04:22;3.00;;;2.70;;
15573;SDS011;7888;46.748;8.102;2023-04-06T00:06:47;2.73;;;2.53;;
15573;SDS011;7888;46.748;8.102;2023-04-06T00:09:13;3.47;;;2.60;;
15573;SDS011;7888;46.748;8.102;2023-04-06T00:11:39;2.80;;;2.53;;
15573;SDS011;7888;46.748;8.102;2023-04-06T00:14:05;2.93;;;2.50;;
15573;SDS011;7888;46.748;8.102;2023-04-06T00:16:32;3.10;;;2.80;;
15573;SDS011;7888;46.748;8.102;2023-04-06T00:18:57;2.63;;;2.43;;
15573;SDS011;7888;46.748;8.102;2023-04-06T00:21:23;3.40;;;2.90;;
15573;SDS011;7888;46.748;8.102;2023-04-06T00:23:50;2.60;;;2.30;;
15573;SDS011;7888;46.748;8.102;2023-04-06T00:26:16;3.80;;;2.60;;
15573;SDS011;7888;46.748;8.102;2023-04-06T00:28:42;2.37;;;2.17;;
15573;SDS011;7888;46.748;8.102;2023-04-06T00:31:07;3.97;;;2.60;;
15573;SDS011;7888;46.748;8.102;2023-04-06T00:33:33;2.70;;;2.30;;
15573;SDS011;7888;46.748;8.102;2023-04-06T00:35:59;2.50;;;2.30;;
15573;SDS011;7888;46.748;8.102;2023-04-06T00:38:25;3.20;;;2.87;;
15573;SDS011;7888;46.748;8.102;2023-04-06T00:40:51;3.33;;;2.90;;
15573;SDS011;7888;46.748;8.102;2023-04-06T00:43:16;2.73;;;2.50;;
15573;SDS011;7888;46.748;8.102;2023-04-06T00:45:42;3.47;;;2.73;;
15573;SDS011;7888;46.748;8.102;2023-04-06T00:48:08;3.23;;;2.70;;
15573;SDS011;7888;46.748;8.102;2023-04-06T00:50:34;2.90;;;2.50;;
15573;SDS011;7888;46.748;8.102;2023-04-06T00:53:00;3.57;;;3.00;;
15573;SDS011;7888;46.748;8.102;2023-04-06T00:55:27;3.60;;;2.20;;
15573;SDS011;7888;46.748;8.102;2023-04-06T00:57:54;3.33;;;2.97;;
15573;SDS011;7888;46.748;8.102;2023-04-06T01:00:24;3.20;;;2.90;;
15573;SDS011;7888;46.748;8.102;2023-04-06T01:02:50;3.20;;;2.90;;
15573;SDS011;7888;46.748;8.102;2023-04-06T01:05:16;2.90;;;2.60;;
15573;SDS011;7888;46.748;8.102;2023-04-06T01:07:42;2.90;;;2.30;;
15573;SDS011;7888;46.748;8.102;2023-04-06T01:10:08;3.37;;;2.77;;
15573;SDS011;7888;46.748;8.102;2023-04-06T01:12:34;4.07;;;2.80;;
15573;SDS011;7888;46.748;8.102;2023-04-06T01:15:02;2.63;;;2.43;;
15573;SDS011;7888;46.748;8.102;2023-04-06T01:17:29;3.00;;;2.17;;
15573;SDS011;7888;46.748;8.102;2023-04-06T01:19:55;3.20;;;2.37;;
15573;SDS011;7888;46.748;8.102;2023-04-06T01:22:21;2.60;;;2.40;;
15573;SDS011;7888;46.748;8.102;2023-04-06T01:24:49;3.20;;;2.67;;
15573;SDS011;7888;46.748;8.102;2023-04-06T01:27:14;2.80;;;2.60;;
15573;SDS011;7888;46.748;8.102;2023-04-06T01:29:40;2.80;;;2.57;;
15573;SDS011;7888;46.748;8.102;2023-04-06T01:32:06;3.83;;;2.70;;
15573;SDS011;7888;46.748;8.102;2023-04-06T01:34:33;5.27;;;2.70;;
15573;SDS011;7888;46.748;8.102;2023-04-06T01:36:58;3.27;;;2.40;;
15573;SDS011;7888;46.748;8.102;2023-04-06T01:39:25;4.67;;;2.73;;
15573;SDS011;7888;46.748;8.102;2023-04-06T01:41:51;3.03;;;2.57;;
15573;SDS011;7888;46.748;8.102;2023-04-06T01:44:17;3.43;;;2.80;;
15573;SDS011;7888;46.748;8.102;2023-04-06T01:46:44;3.13;;;2.70;;
15573;SDS011;7888;46.748;8.102;2023-04-06T01:49:11;3.00;;;2.70;;
15573;SDS011;7888;46.748;8.102;2023-04-06T01:51:37;3.20;;;2.30;;
15573;SDS011;7888;46.748;8.102;2023-04-06T01:54:04;3.00;;;2.70;;
15573;SDS011;7888;46.748;8.102;2023-04-06T01:56:30;3.50;;;2.60;;
15573;SDS011;7888;46.748;8.102;2023-04-06T01:58:56;2.30;;;2.10;;
15573;SDS011;7888;46.748;8.102;2023-04-06T02:01:22;2.67;;;2.47;;
15573;SDS011;7888;46.748;8.102;2023-04-06T02:03:47;3.47;;;2.43;;
15573;SDS011;7888;46.748;8.102;2023-04-06T02:06:13;2.97;;;2.67;;
15573;SDS011;7888;46.748;8.102;2023-04-06T02:08:39;3.27;;;2.70;;
15573;SDS011;7888;46.748;8.102;2023-04-06T02:11:05;4.47;;;2.87;;
15573;SDS011;7888;46.748;8.102;2023-04-06T02:13:31;3.87;;;2.60;;
15573;SDS011;7888;46.748;8.102;2023-04-06T02:15:57;2.97;;;2.17;;
15573;SDS011;7888;46.748;8.102;2023-04-06T02:18:23;3.50;;;2.93;;
15573;SDS011;7888;46.748;8.102;2023-04-06T02:20:48;3.10;;;2.80;;
15573;SDS011;7888;46.748;8.102;2023-04-06T02:23:14;2.70;;;2.50;;
15573;SDS011;7888;46.748;8.102;2023-04-06T02:25:40;2.80;;;2.50;;
15573;SDS011;7888;46.748;8.102;2023-04-06T02:28:06;2.97;;;2.60;;
15573;SDS011;7888;46.748;8.102;2023-04-06T02:30:32;3.03;;;2.73;;
15573;SDS011;7888;46.748;8.102;2023-04-06T02:33:00;3.20;;;2.37;;
15573;SDS011;7888;46.748;8.102;2023-04-06T02:35:27;3.03;;;2.70;;
15573;SDS011;7888;46.748;8.102;2023-04-06T02:37:55;3.00;;;2.67;;
15573;SDS011;7888;46.748;8.102;2023-04-06T02:40:20;3.20;;;2.63;;
15573;SDS011;7888;46.748;8.102;2023-04-06T02:42:47;3.40;;;2.53;;
15573;SDS011;7888;46.748;8.102;2023-04-06T02:45:12;3.03;;;2.73;;
15573;SDS011;7888;46.748;8.102;2023-04-06T02:47:38;3.63;;;2.53;;
15573;SDS011;7888;46.748;8.102;2023-04-06T02:50:04;4.00;;;2.70;;
15573;SDS011;7888;46.748;8.102;2023-04-06T02:52:31;3.10;;;2.80;;
15573;SDS011;7888;46.748;8.102;2023-04-06T02:54:57;3.03;;;2.53;;
15573;SDS011;7888;46.748;8.102;2023-04-06T02:57:22;3.40;;;2.87;;
15573;SDS011;7888;46.748;8.102;2023-04-06T02:59:48;2.70;;;2.40;;
15573;SDS011;7888;46.748;8.102;2023-04-06T03:02:14;2.53;;;2.33;;
15573;SDS011;7888;46.748;8.102;2023-04-06T03:04:40;2.30;;;2.10;;
15573;SDS011;7888;46.748;8.102;2023-04-06T03:07:07;2.90;;;2.50;;
15573;SDS011;7888;46.748;8.102;2023-04-06T03:09:33;3.83;;;2.20;;
15573;SDS011;7888;46.748;8.102;2023-04-06T03:11:59;4.90;;;2.60;;
15573;SDS011;7888;46.748;8.102;2023-04-06T03:14:25;3.50;;;2.80;;
15573;SDS011;7888;46.748;8.102;2023-04-06T03:16:52;3.10;;;2.63;;
15573;SDS011;7888;46.748;8.102;2023-04-06T03:19:18;2.57;;;2.37;;
15573;SDS011;7888;46.748;8.102;2023-04-06T03:21:44;2.77;;;2.53;;
15573;SDS011;7888;46.748;8.102;2023-04-06T03:24:10;2.93;;;2.60;;
15573;SDS011;7888;46.748;8.102;2023-04-06T03:26:37;3.00;;;2.70;;
15573;SDS011;7888;46.748;8.102;2023-04-06T03:29:03;2.50;;;2.30;;
15573;SDS011;7888;46.748;8.102;2023-04-06T03:31:29;3.07;;;2.57;;
15573;SDS011;7888;46.748;8.102;2023-04-06T03:33:55;3.30;;;2.53;;
15573;SDS011;7888;46.748;8.102;2023-04-06T03:36:21;3.00;;;2.37;;
15573;SDS011;7888;46.748;8.102;2023-04-06T03:38:46;2.70;;;2.30;;
15573;SDS011;7888;46.748;8.102;2023-04-06T03:41:12;3.63;;;2.77;;
15573;SDS011;7888;46.748;8.102;2023-04-06T03:43:38;4.20;;;2.30;;
15573;SDS011;7888;46.748;8.102;2023-04-06T03:46:04;2.80;;;2.37;;
15573;SDS011;7888;46.748;8.102;2023-04-06T03:48:30;3.17;;;2.53;;
15573;SDS011;7888;46.748;8.102;2023-04-06T03:50:56;2.77;;;2.47;;
15573;SDS011;7888;46.748;8.102;2023-04-06T03:53:21;3.20;;;2.60;;
15573;SDS011;7888;46.748;8.102;2023-04-06T03:55:47;7.03;;;2.93;;
15573;SDS011;7888;46.748;8.102;2023-04-06T03:58:13;2.90;;;2.47;;
15573;SDS011;7888;46.748;8.102;2023-04-06T04:00:39;2.90;;;2.30;;
15573;SDS011;7888;46.748;8.102;2023-04-06T04:03:05;2.40;;;2.20;;
15573;SDS011;7888;46.748;8.102;2023-04-06T04:05:31;4.57;;;2.40;;
15573;SDS011;7888;46.748;8.102;2023-04-06T04:07:56;3.17;;;2.80;;
15573;SDS011;7888;46.748;8.102;2023-04-06T04:10:22;3.53;;;2.73;;
15573;SDS011;7888;46.748;8.102;2023-04-06T04:12:48;4.63;;;2.93;;
15573;SDS011;7888;46.748;8.102;2023-04-06T04:15:14;3.30;;;2.90;;
15573;SDS011;7888;46.748;8.102;2023-04-06T04:17:40;3.40;;;3.10;;
15573;SDS011;7888;46.748;8.102;2023-04-06T04:20:06;3.00;;;2.67;;
15573;SDS011;7888;46.748;8.102;2023-04-06T04:22:32;4.27;;;2.97;;
15573;SDS011;7888;46.748;8.102;2023-04-06T04:24:58;2.97;;;2.70;;
15573;SDS011;7888;46.748;8.102;2023-04-06T04:27:24;3.53;;;2.70;;
15573;SDS011;7888;46.748;8.102;2023-04-06T04:29:50;2.97;;;2.67;;
15573;SDS011;7888;46.748;8.102;2023-04-06T04:32:16;3.43;;;2.83;;
15573;SDS011;7888;46.748;8.102;2023-04-06T04:34:42;3.27;;;2.53;;
15573;SDS011;7888;46.748;8.102;2023-04-06T04:37:07;4.97;;;2.73;;
15573;SDS011;7888;46.748;8.102;2023-04-06T04:39:33;3.57;;;2.67;;
15573;SDS011;7888;46.748;8.102;2023-04-06T04:41:59;2.73;;;2.50;;
15573;SDS011;7888;46.748;8.102;2023-04-06T04:44:25;3.07;;;2.37;;
15573;SDS011;7888;46.748;8.102;2023-04-06T04:46:51;2.77;;;2.10;;
15573;SDS011;7888;46.748;8.102;2023-04-06T04:49:17;2.67;;;2.47;;
15573;SDS011;7888;46.748;8.102;2023-04-06T04:51:43;2.47;;;2.00;;
15573;SDS011;7888;46.748;8.102;2023-04-06T04:54:09;2.80;;;2.20;;
15573;SDS011;7888;46.748;8.102;2023-04-06T04:56:35;4.43;;;2.40;;
15573;SDS011;7888;46.748;8.102;2023-04-06T04:59:01;3.03;;;2.40;;
15573;SDS011;7888;46.748;8.102;2023-04-06T05:01:26;3.10;;;2.27;;
15573;SDS011;7888;46.748;8.102;2023-04-06T05:03:53;5.63;;;4.23;;
15573;SDS011;7888;46.748;8.102;2023-04-06T05:06:19;17.47;;;10.40;;
15573;SDS011;7888;46.748;8.102;2023-04-06T05:08:45;19.67;;;12.00;;
15573;SDS011;7888;46.748;8.102;2023-04-06T05:11:11;22.53;;;13.60;;
15573;SDS011;7888;46.748;8.102;2023-04-06T05:13:37;16.67;;;9.80;;
15573;SDS011;7888;46.748;8.102;2023-04-06T05:16:03;10.93;;;6.47;;
15573;SDS011;7888;46.748;8.102;2023-04-06T05:18:29;10.63;;;6.37;;
15573;SDS011;7888;46.748;8.102;2023-04-06T05:20:55;9.43;;;5.47;;
15573;SDS011;7888;46.748;8.102;2023-04-06T05:23:21;7.90;;;5.27;;
15573;SDS011;7888;46.748;8.102;2023-04-06T05:25:47;5.37;;;4.03;;
15573;SDS011;7888;46.748;8.102;2023-04-06T05:28:13;12.87;;;8.93;;
15573;SDS011;7888;46.748;8.102;2023-04-06T05:30:40;25.93;;;15.40;;
15573;SDS011;7888;46.748;8.102;2023-04-06T05:33:06;33.30;;;18.73;;
15573;SDS011;7888;46.748;8.102;2023-04-06T05:35:32;38.27;;;21.30;;
15573;SDS011;7888;46.748;8.102;2023-04-06T05:37:58;32.53;;;20.00;;
15573;SDS011;7888;46.748;8.102;2023-04-06T05:40:25;28.73;;;16.50;;
15573;SDS011;7888;46.748;8.102;2023-04-06T05:42:51;23.23;;;13.93;;
15573;SDS011;7888;46.748;8.102;2023-04-06T05:45:16;18.63;;;11.80;;
15573;SDS011;7888;46.748;8.102;2023-04-06T05:47:43;18.90;;;9.90;;
15573;SDS011;7888;46.748;8.102;2023-04-06T05:50:10;16.47;;;9.77;;
15573;SDS011;7888;46.748;8.102;2023-04-06T05:52:37;13.10;;;8.37;;
15573;SDS011;7888;46.748;8.102;2023-04-06T05:55:03;40.43;;;15.43;;
15573;SDS011;7888;46.748;8.102;2023-04-06T05:57:30;55.60;;;20.57;;
15573;SDS011;7888;46.748;8.102;2023-04-06T05:59:56;27.53;;;14.90;;
15573;SDS011;7888;46.748;8.102;2023-04-06T06:02:22;36.57;;;21.20;;
15573;SDS011;7888;46.748;8.102;2023-04-06T06:04:48;35.40;;;21.33;;
15573;SDS011;7888;46.748;8.102;2023-04-06T06:07:15;31.47;;;20.10;;
15573;SDS011;7888;46.748;8.102;2023-04-06T06:09:41;24.83;;;15.53;;
15573;SDS011;7888;46.748;8.102;2023-04-06T06:12:07;22.23;;;12.77;;
15573;SDS011;7888;46.748;8.102;2023-04-06T06:14:34;12.17;;;9.70;;
15573;SDS011;7888;46.748;8.102;2023-04-06T06:17:00;12.93;;;7.63;;
15573;SDS011;7888;46.748;8.102;2023-04-06T06:19:26;11.57;;;8.13;;
15573;SDS011;7888;46.748;8.102;2023-04-06T06:21:52;9.27;;;6.67;;
15573;SDS011;7888;46.748;8.102;2023-04-06T06:24:18;9.27;;;6.90;;
15573;SDS011;7888;46.748;8.102;2023-04-06T06:26:44;13.83;;;8.87;;
15573;SDS011;7888;46.748;8.102;2023-04-06T06:29:11;15.00;;;9.83;;
15573;SDS011;7888;46.748;8.102;2023-04-06T06:31:37;13.20;;;9.03;;
15573;SDS011;7888;46.748;8.102;2023-04-06T06:34:03;14.43;;;10.03;;
15573;SDS011;7888;46.748;8.102;2023-04-06T06:36:30;11.53;;;8.10;;
15573;SDS011;7888;46.748;8.102;2023-04-06T06:38:57;8.67;;;5.73;;
15573;SDS011;7888;46.748;8.102;2023-04-06T06:41:25;8.53;;;4.57;;
15573;SDS011;7888;46.748;8.102;2023-04-06T06:43:51;5.13;;;3.67;;
15573;SDS011;7888;46.748;8.102;2023-04-06T06:46:17;4.33;;;3.17;;
15573;SDS011;7888;46.748;8.102;2023-04-06T06:48:45;4.07;;;3.20;;
15573;SDS011;7888;46.748;8.102;2023-04-06T06:51:11;3.40;;;2.77;;
15573;SDS011;7888;46.748;8.102;2023-04-06T06:53:38;3.50;;;2.73;;
15573;SDS011;7888;46.748;8.102;2023-04-06T08:34:16;4.33;;;2.40;;
15573;SDS011;7888;46.748;8.102;2023-04-06T08:36:42;2.80;;;2.50;;
15573;SDS011;7888;46.748;8.102;2023-04-06T08:39:08;2.90;;;2.60;;
15573;SDS011;7888;46.748;8.102;2023-04-06T08:41:34;3.83;;;2.90;;
15573;SDS011;7888;46.748;8.102;2023-04-06T08:44:01;3.63;;;2.50;;
15573;SDS011;7888;46.748;8.102;2023-04-06T08:46:28;3.47;;;2.50;;
15573;SDS011;7888;46.748;8.102;2023-04-06T08:48:56;2.63;;;2.43;;
15573;SDS011;7888;46.748;8.102;2023-04-06T08:51:24;4.23;;;2.90;;
15573;SDS011;7888;46.748;8.102;2023-04-06T08:53:57;2.60;;;2.40;;
15573;SDS011;7888;46.748;8.102;2023-04-06T08:56:26;3.73;;;2.40;;
15573;SDS011;7888;46.748;8.102;2023-04-06T08:58:53;3.00;;;2.67;;
15573;SDS011;7888;46.748;8.102;2023-04-06T09:01:21;3.53;;;2.90;;
15573;SDS011;7888;46.748;8.102;2023-04-06T09:03:57;3.73;;;3.20;;
15573;SDS011;7888;46.748;8.102;2023-04-06T09:06:25;2.83;;;2.50;;
15573;SDS011;7888;46.748;8.102;2023-04-06T09:08:52;4.07;;;2.83;;
15573;SDS011;7888;46.748;8.102;2023-04-06T09:11:19;4.93;;;2.80;;
15573;SDS011;7888;46.748;8.102;2023-04-06T09:13:49;3.73;;;2.47;;
15573;SDS011;7888;46.748;8.102;2023-04-06T09:16:19;4.23;;;2.67;;
15573;SDS011;7888;46.748;8.102;2023-04-06T09:18:46;3.40;;;3.00;;
15573;SDS011;7888;46.748;8.102;2023-04-06T09:21:15;2.77;;;2.57;;
15573;SDS011;7888;46.748;8.102;2023-04-06T09:23:43;3.10;;;2.80;;
15573;SDS011;7888;46.748;8.102;2023-04-06T09:26:10;3.90;;;2.80;;
15573;SDS011;7888;46.748;8.102;2023-04-06T09:31:08;3.13;;;2.80;;
15573;SDS011;7888;46.748;8.102;2023-04-06T09:33:38;3.20;;;2.90;;
15573;SDS011;7888;46.748;8.102;2023-04-06T09:36:07;3.07;;;2.77;;
15573;SDS011;7888;46.748;8.102;2023-04-06T09:38:36;3.77;;;2.70;;
15573;SDS011;7888;46.748;8.102;2023-04-06T09:41:24;2.97;;;2.53;;
15573;SDS011;7888;46.748;8.102;2023-04-06T09:44:04;2.83;;;2.63;;
15573;SDS011;7888;46.748;8.102;2023-04-06T09:46:32;3.30;;;2.60;;
15573;SDS011;7888;46.748;8.102;2023-04-06T09:49:01;4.37;;;2.77;;
15573;SDS011;7888;46.748;8.102;2023-04-06T09:51:30;2.90;;;2.60;;
15573;SDS011;7888;46.748;8.102;2023-04-06T09:54:02;2.57;;;2.37;;
15573;SDS011;7888;46.748;8.102;2023-04-06T09:56:46;2.73;;;2.43;;
15573;SDS011;7888;46.748;8.102;2023-04-06T10:02:03;3.30;;;3.00;;
15573;SDS011;7888;46.748;8.102;2023-04-06T10:04:37;4.23;;;3.23;;
15573;SDS011;7888;46.748;8.102;2023-04-06T10:07:12;3.03;;;2.83;;
15573;SDS011;7888;46.748;8.102;2023-04-06T10:09:40;3.13;;;2.67;;
15573;SDS011;7888;46.748;8.102;2023-04-06T10:12:11;2.90;;;2.60;;
15573;SDS011;7888;46.748;8.102;2023-04-06T10:14:38;3.63;;;3.00;;
15573;SDS011;7888;46.748;8.102;2023-04-06T10:17:06;3.57;;;2.50;;
15573;SDS011;7888;46.748;8.102;2023-04-06T10:19:34;3.23;;;2.50;;
15573;SDS011;7888;46.748;8.102;2023-04-06T10:22:12;3.37;;;3.00;;
15573;SDS011;7888;46.748;8.102;2023-04-06T10:24:47;2.80;;;2.50;;
15573;SDS011;7888;46.748;8.102;2023-04-06T10:27:13;3.50;;;2.63;;
15573;SDS011;7888;46.748;8.102;2023-04-06T10:29:43;2.70;;;2.37;;
15573;SDS011;7888;46.748;8.102;2023-04-06T10:32:16;3.07;;;2.73;;
15573;SDS011;7888;46.748;8.102;2023-04-06T10:34:42;3.27;;;2.30;;
15573;SDS011;7888;46.748;8.102;2023-04-06T10:37:14;3.20;;;2.90;;
15573;SDS011;7888;46.748;8.102;2023-04-06T10:39:53;2.90;;;2.70;;
15573;SDS011;7888;46.748;8.102;2023-04-06T10:42:36;3.03;;;2.77;;
15573;SDS011;7888;46.748;8.102;2023-04-06T10:45:06;3.17;;;2.87;;
15573;SDS011;7888;46.748;8.102;2023-04-06T10:47:43;2.67;;;2.47;;
15573;SDS011;7888;46.748;8.102;2023-04-06T10:50:10;3.33;;;2.77;;
15573;SDS011;7888;46.748;8.102;2023-04-06T10:52:41;4.07;;;2.83;;
15573;SDS011;7888;46.748;8.102;2023-04-06T10:55:14;3.80;;;2.93;;
15573;SDS011;7888;46.748;8.102;2023-04-06T10:57:41;3.83;;;2.90;;
15573;SDS011;7888;46.748;8.102;2023-04-06T11:00:07;3.83;;;3.10;;
15573;SDS011;7888;46.748;8.102;2023-04-06T11:02:34;3.87;;;2.73;;
15573;SDS011;7888;46.748;8.102;2023-04-06T11:05:02;2.63;;;2.40;;
15573;SDS011;7888;46.748;8.102;2023-04-06T11:07:29;3.53;;;2.30;;
15573;SDS011;7888;46.748;8.102;2023-04-06T11:09:55;3.03;;;2.73;;
15573;SDS011;7888;46.748;8.102;2023-04-06T11:12:26;4.83;;;2.87;;
15573;SDS011;7888;46.748;8.102;2023-04-06T11:14:54;2.90;;;2.60;;
15573;SDS011;7888;46.748;8.102;2023-04-06T11:17:29;3.90;;;2.73;;
15573;SDS011;7888;46.748;8.102;2023-04-06T11:19:57;3.00;;;2.47;;
15573;SDS011;7888;46.748;8.102;2023-04-06T11:22:24;3.30;;;2.57;;
15573;SDS011;7888;46.748;8.102;2023-04-06T11:24:51;2.73;;;2.47;;
15573;SDS011;7888;46.748;8.102;2023-04-06T11:27:17;3.40;;;2.50;;
15573;SDS011;7888;46.748;8.102;2023-04-06T11:29:45;3.63;;;2.43;;
15573;SDS011;7888;46.748;8.102;2023-04-06T11:32:19;3.43;;;2.50;;
15573;SDS011;7888;46.748;8.102;2023-04-06T11:34:47;3.03;;;2.53;;
15573;SDS011;7888;46.748;8.102;2023-04-06T11:37:14;4.33;;;2.83;;
15573;SDS011;7888;46.748;8.102;2023-04-06T11:39:43;4.93;;;3.43;;
15573;SDS011;7888;46.748;8.102;2023-04-06T11:42:23;4.07;;;2.60;;
15573;SDS011;7888;46.748;8.102;2023-04-06T11:44:52;2.70;;;2.50;;
15573;SDS011;7888;46.748;8.102;2023-04-06T11:47:26;4.27;;;2.50;;
15573;SDS011;7888;46.748;8.102;2023-04-06T11:50:05;4.23;;;3.33;;
15573;SDS011;7888;46.748;8.102;2023-04-06T11:52:34;3.70;;;3.10;;
15573;SDS011;7888;46.748;8.102;2023-04-06T11:55:09;2.93;;;2.63;;
15573;SDS011;7888;46.748;8.102;2023-04-06T11:57:41;3.40;;;3.10;;
15573;SDS011;7888;46.748;8.102;2023-04-06T12:00:08;3.73;;;3.17;;
15573;SDS011;7888;46.748;8.102;2023-04-06T12:02:36;3.27;;;2.90;;
15573;SDS011;7888;46.748;8.102;2023-04-06T12:05:03;3.70;;;3.30;;
15573;SDS011;7888;46.748;8.102;2023-04-06T12:07:32;3.27;;;2.87;;
15573;SDS011;7888;46.748;8.102;2023-04-06T12:09:59;3.17;;;2.67;;
15573;SDS011;7888;46.748;8.102;2023-04-06T12:12:27;4.00;;;3.63;;
15573;SDS011;7888;46.748;8.102;2023-04-06T12:14:54;3.67;;;3.37;;
15573;SDS011;7888;46.748;8.102;2023-04-06T12:17:21;4.57;;;3.90;;
15573;SDS011;7888;46.748;8.102;2023-04-06T12:19:48;8.17;;;4.23;;
15573;SDS011;7888;46.748;8.102;2023-04-06T12:22:14;6.00;;;4.00;;
15573;SDS011;7888;46.748;8.102;2023-04-06T12:24:41;5.83;;;4.10;;
15573;SDS011;7888;46.748;8.102;2023-04-06T12:27:07;5.83;;;4.47;;
15573;SDS011;7888;46.748;8.102;2023-04-06T12:29:34;4.90;;;4.00;;
15573;SDS011;7888;46.748;8.102;2023-04-06T12:32:00;5.13;;;4.27;;
15573;SDS011;7888;46.748;8.102;2023-04-06T12:34:26;6.93;;;5.03;;
15573;SDS011;7888;46.748;8.102;2023-04-06T12:36:52;5.03;;;4.50;;
15573;SDS011;7888;46.748;8.102;2023-04-06T12:39:18;4.80;;;4.13;;
15573;SDS011;7888;46.748;8.102;2023-04-06T12:41:45;5.03;;;4.53;;
15573;SDS011;7888;46.748;8.102;2023-04-06T12:44:11;4.83;;;4.33;;
15573;SDS011;7888;46.748;8.102;2023-04-06T12:46:37;4.73;;;4.33;;
15573;SDS011;7888;46.748;8.102;2023-04-06T12:49:03;5.57;;;4.00;;
15573;SDS011;7888;46.748;8.102;2023-04-06T12:51:29;6.90;;;4.13;;
15573;SDS011;7888;46.748;8.102;2023-04-06T12:53:56;4.60;;;4.03;;
15573;SDS011;7888;46.748;8.102;2023-04-06T12:56:22;6.43;;;4.33;;
15573;SDS011;7888;46.748;8.102;2023-04-06T12:58:50;4.63;;;4.23;;
15573;SDS011;7888;46.748;8.102;2023-04-06T13:01:17;4.47;;;3.93;;
15573;SDS011;7888;46.748;8.102;2023-04-06T13:03:43;4.77;;;4.00;;
15573;SDS011;7888;46.748;8.102;2023-04-06T13:06:09;6.70;;;4.43;;
15573;SDS011;7888;46.748;8.102;2023-04-06T13:08:36;7.23;;;4.23;;
15573;SDS011;7888;46.748;8.102;2023-04-06T13:11:03;6.53;;;4.90;;
15573;SDS011;7888;46.748;8.102;2023-04-06T13:13:33;4.47;;;4.07;;
15573;SDS011;7888;46.748;8.102;2023-04-06T13:16:03;6.53;;;4.60;;
15573;SDS011;7888;46.748;8.102;2023-04-06T13:18:32;4.60;;;4.20;;
15573;SDS011;7888;46.748;8.102;2023-04-06T13:21:00;5.10;;;4.50;;
15573;SDS011;7888;46.748;8.102;2023-04-06T13:23:26;4.97;;;4.20;;
15573;SDS011;7888;46.748;8.102;2023-04-06T13:28:33;4.83;;;4.33;;
15573;SDS011;7888;46.748;8.102;2023-04-06T13:31:03;4.70;;;4.23;;
15573;SDS011;7888;46.748;8.102;2023-04-06T13:33:30;5.13;;;4.13;;
15573;SDS011;7888;46.748;8.102;2023-04-06T13:35:56;4.87;;;4.37;;
15573;SDS011;7888;46.748;8.102;2023-04-06T13:38:23;5.20;;;4.70;;
15573;SDS011;7888;46.748;8.102;2023-04-06T13:40:50;4.97;;;4.17;;
15573;SDS011;7888;46.748;8.102;2023-04-06T13:43:17;4.40;;;4.00;;
15573;SDS011;7888;46.748;8.102;2023-04-06T13:45:51;4.57;;;4.03;;
15573;SDS011;7888;46.748;8.102;2023-04-06T13:48:23;5.00;;;3.90;;
15573;SDS011;7888;46.748;8.102;2023-04-06T13:50:50;5.00;;;4.20;;
15573;SDS011;7888;46.748;8.102;2023-04-06T13:53:16;5.30;;;3.87;;
15573;SDS011;7888;46.748;8.102;2023-04-06T13:55:43;4.27;;;3.80;;
15573;SDS011;7888;46.748;8.102;2023-04-06T13:58:17;3.93;;;3.53;;
15573;SDS011;7888;46.748;8.102;2023-04-06T14:00:43;3.93;;;3.53;;
15573;SDS011;7888;46.748;8.102;2023-04-06T14:03:10;4.13;;;3.73;;
15573;SDS011;7888;46.748;8.102;2023-04-06T14:05:36;5.07;;;4.00;;
15573;SDS011;7888;46.748;8.102;2023-04-06T14:08:02;5.20;;;4.03;;
15573;SDS011;7888;46.748;8.102;2023-04-06T14:10:27;4.30;;;3.90;;
15573;SDS011;7888;46.748;8.102;2023-04-06T14:12:53;4.57;;;3.90;;
15573;SDS011;7888;46.748;8.102;2023-04-06T14:15:20;4.33;;;3.93;;
15573;SDS011;7888;46.748;8.102;2023-04-06T14:17:47;4.37;;;3.80;;
15573;SDS011;7888;46.748;8.102;2023-04-06T14:20:13;6.37;;;4.70;;
15573;SDS011;7888;46.748;8.102;2023-04-06T14:22:40;3.97;;;3.57;;
15573;SDS011;7888;46.748;8.102;2023-04-06T14:25:07;4.80;;;4.30;;
15573;SDS011;7888;46.748;8.102;2023-04-06T14:27:34;5.03;;;3.33;;
15573;SDS011;7888;46.748;8.102;2023-04-06T14:30:00;5.63;;;3.80;;
15573;SDS011;7888;46.748;8.102;2023-04-06T14:32:26;4.43;;;4.03;;
15573;SDS011;7888;46.748;8.102;2023-04-06T14:34:52;4.80;;;3.60;;
15573;SDS011;7888;46.748;8.102;2023-04-06T14:37:18;3.97;;;3.67;;
15573;SDS011;7888;46.748;8.102;2023-04-06T14:39:45;4.37;;;3.93;;
15573;SDS011;7888;46.748;8.102;2023-04-06T14:42:11;5.40;;;3.70;;
15573;SDS011;7888;46.748;8.102;2023-04-06T14:44:37;6.00;;;4.10;;
15573;SDS011;7888;46.748;8.102;2023-04-06T14:47:07;4.43;;;3.80;;
15573;SDS011;7888;46.748;8.102;2023-04-06T14:49:34;4.70;;;3.80;;
15573;SDS011;7888;46.748;8.102;2023-04-06T14:52:00;4.43;;;3.37;;
15573;SDS011;7888;46.748;8.102;2023-04-06T14:54:26;3.97;;;3.50;;
15573;SDS011;7888;46.748;8.102;2023-04-06T14:56:52;4.20;;;3.50;;
15573;SDS011;7888;46.748;8.102;2023-04-06T14:59:17;3.77;;;3.40;;
15573;SDS011;7888;46.748;8.102;2023-04-06T15:01:43;3.70;;;3.40;;
15573;SDS011;7888;46.748;8.102;2023-04-06T15:04:09;3.87;;;3.13;;
15573;SDS011;7888;46.748;8.102;2023-04-06T15:06:35;3.93;;;3.40;;
15573;SDS011;7888;46.748;8.102;2023-04-06T15:09:02;3.47;;;3.17;;
15573;SDS011;7888;46.748;8.102;2023-04-06T15:11:28;3.77;;;3.37;;
15573;SDS011;7888;46.748;8.102;2023-04-06T15:13:53;3.13;;;2.57;;
15573;SDS011;7888;46.748;8.102;2023-04-06T15:16:19;3.20;;;2.90;;
15573;SDS011;7888;46.748;8.102;2023-04-06T15:18:45;3.27;;;2.90;;
15573;SDS011;7888;46.748;8.102;2023-04-06T15:21:12;2.77;;;2.47;;
15573;SDS011;7888;46.748;8.102;2023-04-06T15:23:37;2.87;;;2.57;;
15573;SDS011;7888;46.748;8.102;2023-04-06T15:26:03;2.90;;;2.50;;
15573;SDS011;7888;46.748;8.102;2023-04-06T15:28:29;2.53;;;2.13;;
15573;SDS011;7888;46.748;8.102;2023-04-06T15:30:55;2.60;;;2.40;;
15573;SDS011;7888;46.748;8.102;2023-04-06T15:33:22;2.90;;;2.47;;
15573;SDS011;7888;46.748;8.102;2023-04-06T15:35:48;3.17;;;2.87;;
15573;SDS011;7888;46.748;8.102;2023-04-06T15:38:14;3.00;;;2.70;;
15573;SDS011;7888;46.748;8.102;2023-04-06T15:40:44;4.07;;;2.60;;
15573;SDS011;7888;46.748;8.102;2023-04-06T15:43:13;2.90;;;2.70;;
15573;SDS011;7888;46.748;8.102;2023-04-06T15:45:41;3.47;;;2.70;;
15573;SDS011;7888;46.748;8.102;2023-04-06T15:48:07;2.50;;;2.30;;
15573;SDS011;7888;46.748;8.102;2023-04-06T15:50:33;2.50;;;2.30;;
15573;SDS011;7888;46.748;8.102;2023-04-06T15:53:00;2.50;;;2.30;;
15573;SDS011;7888;46.748;8.102;2023-04-06T15:55:26;2.50;;;2.30;;
15573;SDS011;7888;46.748;8.102;2023-04-06T15:57:52;3.40;;;2.27;;
15573;SDS011;7888;46.748;8.102;2023-04-06T16:00:18;3.33;;;2.50;;
15573;SDS011;7888;46.748;8.102;2023-04-06T16:02:44;2.50;;;2.27;;
15573;SDS011;7888;46.748;8.102;2023-04-06T16:05:10;3.57;;;2.40;;
15573;SDS011;7888;46.748;8.102;2023-04-06T16:07:36;2.80;;;2.30;;
15573;SDS011;7888;46.748;8.102;2023-04-06T16:10:02;2.30;;;2.07;;
15573;SDS011;7888;46.748;8.102;2023-04-06T16:12:29;3.20;;;2.20;;
15573;SDS011;7888;46.748;8.102;2023-04-06T16:14:57;2.30;;;2.10;;
15573;SDS011;7888;46.748;8.102;2023-04-06T16:17:23;2.90;;;2.47;;
15573;SDS011;7888;46.748;8.102;2023-04-06T16:19:49;2.63;;;2.30;;
15573;SDS011;7888;46.748;8.102;2023-04-06T16:22:15;2.80;;;2.17;;
15573;SDS011;7888;46.748;8.102;2023-04-06T16:24:41;2.27;;;2.07;;
15573;SDS011;7888;46.748;8.102;2023-04-06T16:27:07;2.83;;;2.47;;
15573;SDS011;7888;46.748;8.102;2023-04-06T16:29:33;4.27;;;2.03;;
15573;SDS011;7888;46.748;8.102;2023-04-06T16:32:01;3.73;;;2.10;;
15573;SDS011;7888;46.748;8.102;2023-04-06T16:34:31;2.10;;;1.87;;
15573;SDS011;7888;46.748;8.102;2023-04-06T16:36:58;2.23;;;1.70;;
15573;SDS011;7888;46.748;8.102;2023-04-06T16:39:25;2.37;;;1.80;;
15573;SDS011;7888;46.748;8.102;2023-04-06T16:41:51;1.80;;;1.40;;
15573;SDS011;7888;46.748;8.102;2023-04-06T16:44:17;2.20;;;1.80;;
15573;SDS011;7888;46.748;8.102;2023-04-06T16:46:43;1.70;;;1.60;;